Time;durP1;ratioP1;P1;durP2;ratioP2;P2;SDS_P1;SDS_P2;PMS_P1;PMS_P2;Temp;Humidity;BMP_temperature;BMP_pressure;BME280_temperature;BME280_humidity;BME280_pressure;Samples;Min_cycle;Max_cycle;Signal;HPM_P1;HPM_P2
2024/03/18 00:01:34;;;;;;;2.90;1.77;;;5.50;99.90;;;;;;4160250;28;20383;-56
2024/03/18 00:03:35;;;;;;;2.83;1.73;;;5.50;99.90;;;;;;4161991;28;20468;-54
2024/03/18 00:05:36;;;;;;;3.93;2.20;;;5.50;99.90;;;;;;4160568;28;20435;-52
2024/03/18 00:07:39;;;;;;;3.73;1.40;;;5.50;99.90;;;;;;4160969;28;20053;-53
2024/03/18 00:09:40;;;;;;;4.07;1.87;;;5.50;99.90;;;;;;4159913;28;20033;-55
2024/03/18 00:11:42;;;;;;;3.53;1.97;;;5.50;99.90;;;;;;4162198;28;20026;-54
2024/03/18 00:13:43;;;;;;;3.40;2.07;;;5.50;99.90;;;;;;4160039;28;20037;-51
2024/03/18 00:15:44;;;;;;;4.80;1.80;;;5.50;99.90;;;;;;4158962;28;20465;-53
2024/03/18 00:17:45;;;;;;;2.57;1.83;;;5.40;99.90;;;;;;4158176;28;20421;-51
2024/03/18 00:19:48;;;;;;;2.27;1.40;;;5.40;99.90;;;;;;4159010;28;20383;-52
2024/03/18 00:21:49;;;;;;;3.80;2.87;;;5.40;99.90;;;;;;4157638;28;20029;-55
2024/03/18 00:23:51;;;;;;;6.90;2.73;;;5.40;99.90;;;;;;4159516;28;20059;-51
2024/03/18 00:25:52;;;;;;;4.43;2.27;;;5.40;99.90;;;;;;4160380;28;20441;-53
2024/03/18 00:27:53;;;;;;;4.50;2.40;;;5.40;99.90;;;;;;4161255;28;20053;-50
2024/03/18 00:29:55;;;;;;;8.47;3.13;;;5.40;99.90;;;;;;4161065;28;20029;-51
2024/03/18 00:31:57;;;;;;;5.17;2.40;;;5.30;99.90;;;;;;4159378;28;20055;-53
2024/03/18 00:33:58;;;;;;;3.17;1.93;;;5.30;99.90;;;;;;4159454;28;20551;-54
2024/03/18 00:35:59;;;;;;;6.80;3.23;;;5.30;99.90;;;;;;4157364;28;20079;-50
2024/03/18 00:38:01;;;;;;;4.50;2.40;;;5.30;99.90;;;;;;4161138;28;20159;-49
2024/03/18 00:40:03;;;;;;;3.50;1.90;;;5.20;99.90;;;;;;4159081;28;20114;-50
2024/03/18 00:42:04;;;;;;;4.17;2.70;;;5.20;99.90;;;;;;4159750;28;20092;-54
2024/03/18 00:44:06;;;;;;;3.87;2.00;;;5.20;99.90;;;;;;4156886;28;20049;-52
2024/03/18 00:46:07;;;;;;;4.97;2.47;;;5.20;99.90;;;;;;4158758;28;20083;-55
2024/03/18 00:48:08;;;;;;;6.57;2.57;;;5.20;99.90;;;;;;4159091;28;20029;-51
2024/03/18 00:50:11;;;;;;;3.83;2.77;;;5.20;99.90;;;;;;4159752;28;20042;-55
2024/03/18 00:52:12;;;;;;;5.30;2.93;;;5.20;99.90;;;;;;4159589;28;20021;-51
2024/03/18 00:54:14;;;;;;;7.03;3.80;;;5.20;99.90;;;;;;4141124;28;20580;-56
2024/03/18 00:56:15;;;;;;;7.70;2.77;;;5.20;99.90;;;;;;4158279;28;20037;-53
2024/03/18 00:58:16;;;;;;;8.33;3.40;;;5.10;99.90;;;;;;4158670;28;20399;-52
2024/03/18 01:00:18;;;;;;;4.93;2.50;;;5.10;99.90;;;;;;4159195;28;20029;-51
2024/03/18 01:02:19;;;;;;;5.73;2.27;;;5.10;99.90;;;;;;4159169;28;20497;-53
2024/03/18 01:04:20;;;;;;;7.83;2.70;;;5.10;99.90;;;;;;4159858;28;20095;-53
2024/03/18 01:06:24;;;;;;;4.17;2.40;;;5.00;99.90;;;;;;4157792;28;20156;-51
2024/03/18 01:08:26;;;;;;;3.97;2.07;;;5.00;99.90;;;;;;4159551;28;20049;-53
2024/03/18 01:10:27;;;;;;;5.27;2.57;;;5.00;99.90;;;;;;4155812;28;20087;-52
2024/03/18 01:12:28;;;;;;;6.70;2.90;;;5.00;99.90;;;;;;4158088;28;20049;-52
2024/03/18 01:14:30;;;;;;;5.87;2.60;;;5.00;99.90;;;;;;4158483;28;20033;-50
2024/03/18 01:16:31;;;;;;;3.87;2.60;;;4.90;99.90;;;;;;4159109;28;20107;-54
2024/03/18 01:18:32;;;;;;;6.13;4.03;;;4.90;99.90;;;;;;4158430;28;20052;-53
2024/03/18 01:20:34;;;;;;;3.43;2.17;;;4.90;99.90;;;;;;4159252;28;20505;-51
2024/03/18 01:22:35;;;;;;;5.80;2.80;;;4.80;99.90;;;;;;4160274;28;20037;-49
2024/03/18 01:24:36;;;;;;;6.50;3.80;;;4.80;99.90;;;;;;4158492;28;20054;-48
2024/03/18 01:26:38;;;;;;;7.53;3.43;;;4.70;99.90;;;;;;4158198;28;20045;-53
2024/03/18 01:28:39;;;;;;;5.50;3.37;;;4.60;99.90;;;;;;4156869;28;20087;-49
2024/03/18 01:30:41;;;;;;;5.03;2.70;;;4.50;99.90;;;;;;4158626;28;20037;-53
2024/03/18 01:32:42;;;;;;;5.73;3.30;;;4.50;99.90;;;;;;4158186;28;20107;-52
2024/03/18 01:34:44;;;;;;;5.43;2.87;;;4.40;99.90;;;;;;4160396;28;20132;-49
2024/03/18 01:36:45;;;;;;;4.80;2.97;;;4.40;99.90;;;;;;4159263;28;20762;-53
2024/03/18 01:38:46;;;;;;;4.27;2.73;;;4.30;99.90;;;;;;4174258;28;20575;-54
2024/03/18 01:40:48;;;;;;;3.17;2.70;;;4.30;99.90;;;;;;4156988;28;20506;-53
2024/03/18 01:42:49;;;;;;;4.70;2.47;;;4.20;99.90;;;;;;4158593;28;20333;-54
2024/03/18 01:44:56;;;;;;;5.77;3.03;;;4.20;99.90;;;;;;4158222;28;20388;-54
2024/03/18 01:46:58;;;;;;;6.77;2.87;;;4.20;99.90;;;;;;4159587;28;20371;-55
2024/03/18 01:48:59;;;;;;;6.97;3.70;;;4.10;99.90;;;;;;4157826;28;20267;-50
2024/03/18 01:51:01;;;;;;;4.90;2.50;;;4.10;99.90;;;;;;4161764;28;20325;-53
2024/03/18 01:53:02;;;;;;;4.23;2.90;;;4.00;99.90;;;;;;4162512;28;20549;-53
2024/03/18 01:55:03;;;;;;;3.43;2.40;;;4.00;99.90;;;;;;4162173;28;20270;-48
2024/03/18 01:57:05;;;;;;;7.17;2.70;;;3.90;99.90;;;;;;4163286;28;20344;-53
2024/03/18 01:59:06;;;;;;;4.03;2.80;;;3.90;99.90;;;;;;4162178;28;20337;-47
2024/03/18 02:01:07;;;;;;;5.40;2.60;;;3.80;99.90;;;;;;4162149;28;20651;-51
2024/03/18 02:03:09;;;;;;;5.67;2.93;;;3.80;99.90;;;;;;4162805;28;20259;-50
2024/03/18 02:05:11;;;;;;;5.23;2.93;;;3.70;99.90;;;;;;4163122;28;20352;-55
2024/03/18 02:07:26;;;;;;;5.90;2.80;;;3.70;99.90;;;;;;4160551;28;20271;-53
2024/03/18 02:09:30;;;;;;;4.43;2.70;;;3.60;99.90;;;;;;4162283;28;20334;-50
2024/03/18 02:11:31;;;;;;;5.83;2.73;;;3.50;99.90;;;;;;4160540;28;20747;-55
2024/03/18 02:13:32;;;;;;;6.27;3.40;;;3.50;99.90;;;;;;4163253;28;20283;-48
2024/03/18 02:15:34;;;;;;;7.90;3.00;;;3.50;99.90;;;;;;4160887;28;20775;-56
2024/03/18 02:17:35;;;;;;;4.37;2.83;;;3.50;99.90;;;;;;4161660;28;20682;-55
2024/03/18 02:19:36;;;;;;;6.20;3.03;;;3.40;99.90;;;;;;4161036;28;20649;-54
2024/03/18 02:21:38;;;;;;;7.47;3.63;;;3.40;99.90;;;;;;4161918;28;20325;-52
2024/03/18 02:23:39;;;;;;;5.13;2.97;;;3.40;99.90;;;;;;4160106;28;20263;-49
2024/03/18 02:25:42;;;;;;;6.43;3.00;;;3.40;99.90;;;;;;4163566;28;20344;-54
2024/03/18 02:27:46;;;;;;;6.10;3.00;;;3.40;99.90;;;;;;4162409;28;20348;-51
2024/03/18 02:29:47;;;;;;;5.00;2.70;;;3.40;99.90;;;;;;4160891;28;20750;-56
2024/03/18 02:31:48;;;;;;;6.70;3.73;;;3.30;99.90;;;;;;4159099;28;20321;-56
2024/03/18 02:33:50;;;;;;;7.07;3.77;;;3.40;99.90;;;;;;4160807;28;20309;-54
2024/03/18 02:35:51;;;;;;;5.13;3.50;;;3.30;99.90;;;;;;4160972;28;20297;-53
2024/03/18 02:37:52;;;;;;;5.63;2.73;;;3.30;99.90;;;;;;4160163;28;20263;-54
2024/03/18 02:39:54;;;;;;;6.33;3.30;;;3.30;99.90;;;;;;4161157;28;20255;-52
2024/03/18 02:41:55;;;;;;;7.80;3.77;;;3.30;99.90;;;;;;4161951;28;20404;-51
2024/03/18 02:43:56;;;;;;;4.27;2.90;;;3.30;99.90;;;;;;4162971;28;20325;-54
2024/03/18 02:45:57;;;;;;;7.37;3.77;;;3.30;99.90;;;;;;4161164;28;20267;-53
2024/03/18 02:47:59;;;;;;;4.77;3.07;;;3.30;99.90;;;;;;4161800;28;21065;-52
2024/03/18 02:50:00;;;;;;;3.97;2.97;;;3.30;99.90;;;;;;4160746;28;20282;-52
2024/03/18 02:52:01;;;;;;;6.13;3.37;;;3.30;99.90;;;;;;4160464;28;20332;-55
2024/03/18 02:54:03;;;;;;;5.77;2.77;;;3.30;99.90;;;;;;4159024;28;20283;-56
2024/03/18 02:56:04;;;;;;;5.70;3.27;;;3.30;99.90;;;;;;4159805;28;20348;-54
2024/03/18 02:58:05;;;;;;;5.23;2.67;;;3.20;99.90;;;;;;4160711;28;20320;-51
2024/03/18 03:00:08;;;;;;;5.93;3.30;;;3.20;99.90;;;;;;4159551;28;20305;-55
2024/03/18 03:02:09;;;;;;;4.30;3.07;;;3.20;99.90;;;;;;4160214;28;20805;-54
2024/03/18 03:04:10;;;;;;;6.17;3.40;;;3.20;99.90;;;;;;4161896;28;21182;-51
2024/03/18 03:06:12;;;;;;;4.57;2.60;;;3.20;99.90;;;;;;4161234;28;20291;-53
2024/03/18 03:08:13;;;;;;;5.30;3.23;;;3.20;99.90;;;;;;4158752;28;20291;-53
2024/03/18 03:10:16;;;;;;;4.20;2.90;;;3.20;99.90;;;;;;4161273;28;20711;-54
2024/03/18 03:12:17;;;;;;;5.87;3.80;;;3.20;99.90;;;;;;4160442;28;20278;-51
2024/03/18 03:14:18;;;;;;;6.30;3.30;;;3.30;99.90;;;;;;4162638;28;20262;-54
2024/03/18 03:16:19;;;;;;;6.30;3.13;;;3.20;99.90;;;;;;4160110;28;20774;-53
2024/03/18 03:18:21;;;;;;;5.63;3.30;;;3.30;99.90;;;;;;4161225;28;20370;-56
2024/03/18 03:20:30;;;;;;;9.47;3.40;;;3.20;99.90;;;;;;4160224;28;20263;-50
2024/03/18 03:22:31;;;;;;;4.13;2.53;;;3.20;99.90;;;;;;4161333;28;20266;-55
2024/03/18 03:24:33;;;;;;;4.80;2.73;;;3.30;99.90;;;;;;4159533;28;20651;-53
2024/03/18 03:26:34;;;;;;;4.30;2.60;;;3.30;99.90;;;;;;4160011;28;20283;-55
2024/03/18 03:28:35;;;;;;;6.13;3.40;;;3.20;99.90;;;;;;4161820;28;20751;-55
2024/03/18 03:30:37;;;;;;;5.40;3.57;;;3.30;99.90;;;;;;4161749;28;20282;-54
2024/03/18 03:32:38;;;;;;;7.03;3.73;;;3.30;99.90;;;;;;4160957;28;20259;-55
2024/03/18 03:34:39;;;;;;;4.63;3.20;;;3.30;99.90;;;;;;4162159;28;20278;-59
2024/03/18 03:36:41;;;;;;;6.40;3.10;;;3.20;99.90;;;;;;4161532;28;20333;-54
2024/03/18 03:38:42;;;;;;;6.40;3.90;;;3.20;99.90;;;;;;4160187;28;20263;-56
2024/03/18 03:40:51;;;;;;;5.80;3.30;;;3.20;99.90;;;;;;4160239;28;20258;-56
2024/03/18 03:42:52;;;;;;;6.23;3.53;;;3.20;99.90;;;;;;4150506;28;20305;-57
2024/03/18 03:44:53;;;;;;;5.53;3.13;;;3.10;99.90;;;;;;4160811;28;20427;-56
2024/03/18 03:46:55;;;;;;;6.10;3.60;;;3.10;99.90;;;;;;4158412;28;20743;-53
2024/03/18 03:48:56;;;;;;;5.50;3.77;;;3.10;99.90;;;;;;4161447;28;20271;-54
2024/03/18 03:50:58;;;;;;;7.67;3.43;;;3.10;99.90;;;;;;4160618;28;20589;-57
2024/03/18 03:52:59;;;;;;;7.27;3.30;;;3.10;99.90;;;;;;4160816;28;20317;-54
2024/03/18 03:55:01;;;;;;;4.70;2.87;;;3.10;99.90;;;;;;4158646;28;20301;-52
2024/03/18 03:57:02;;;;;;;6.70;3.33;;;3.00;99.90;;;;;;4160263;28;20294;-54
2024/03/18 03:59:03;;;;;;;4.80;3.17;;;3.00;99.90;;;;;;4159792;28;20329;-55
2024/03/18 04:01:05;;;;;;;9.43;4.57;;;3.00;99.90;;;;;;4159879;28;20286;-53
2024/03/18 04:03:07;;;;;;;10.17;4.47;;;2.90;99.90;;;;;;4159270;28;20789;-51
2024/03/18 04:05:09;;;;;;;33.17;6.27;;;2.90;99.90;;;;;;4159832;28;20291;-50
2024/03/18 04:07:10;;;;;;;5.90;3.80;;;2.90;99.90;;;;;;4158985;28;20278;-54
2024/03/18 04:09:11;;;;;;;6.70;3.80;;;2.80;99.90;;;;;;4159341;28;20754;-53
2024/03/18 04:11:13;;;;;;;5.93;3.70;;;2.80;99.90;;;;;;4160438;28;20275;-54
2024/03/18 04:13:15;;;;;;;4.17;3.17;;;2.70;99.90;;;;;;4159592;28;20263;-54
2024/03/18 04:15:16;;;;;;;6.50;3.70;;;2.70;99.90;;;;;;4160462;28;20266;-55
2024/03/18 04:17:18;;;;;;;5.47;3.63;;;2.70;99.90;;;;;;4159059;28;20263;-56
2024/03/18 04:19:19;;;;;;;9.23;4.83;;;2.70;99.90;;;;;;4160450;28;20612;-52
2024/03/18 04:21:20;;;;;;;6.53;4.13;;;2.70;99.90;;;;;;4158243;28;20747;-51
2024/03/18 04:23:22;;;;;;;7.83;4.00;;;2.70;99.90;;;;;;4158965;28;20317;-57
2024/03/18 04:25:23;;;;;;;7.83;4.23;;;2.70;99.90;;;;;;4159934;28;20302;-53
2024/03/18 04:27:25;;;;;;;8.57;4.37;;;2.70;99.90;;;;;;4159509;28;20775;-51
2024/03/18 04:29:26;;;;;;;8.23;4.53;;;2.60;99.90;;;;;;4172956;28;20282;-52
2024/03/18 04:31:27;;;;;;;9.20;4.20;;;2.70;99.90;;;;;;4159476;28;20286;-53
2024/03/18 04:33:28;;;;;;;9.33;4.93;;;2.60;99.90;;;;;;4158778;28;20336;-53
2024/03/18 04:35:30;;;;;;;7.53;4.43;;;2.60;99.90;;;;;;4159579;28;20852;-57
2024/03/18 04:37:31;;;;;;;5.07;3.80;;;2.60;99.90;;;;;;4160313;28;20809;-54
2024/03/18 04:39:33;;;;;;;7.57;4.20;;;2.60;99.90;;;;;;4159017;28;20328;-56
2024/03/18 04:41:36;;;;;;;7.83;4.40;;;2.60;99.90;;;;;;4158493;28;20694;-50
2024/03/18 04:43:38;;;;;;;9.43;4.63;;;2.70;99.90;;;;;;4158843;28;20282;-52
2024/03/18 04:45:40;;;;;;;11.90;4.33;;;2.70;99.90;;;;;;4158705;28;20361;-51
2024/03/18 04:47:44;;;;;;;7.07;4.20;;;2.70;99.90;;;;;;4158862;28;20333;-53
2024/03/18 04:49:45;;;;;;;11.57;4.63;;;2.70;99.90;;;;;;4159058;28;20735;-54
2024/03/18 04:51:46;;;;;;;5.60;3.43;;;2.70;99.90;;;;;;4158809;28;20266;-54
2024/03/18 04:53:48;;;;;;;7.37;4.10;;;2.70;99.90;;;;;;4157546;28;20321;-56
2024/03/18 04:55:49;;;;;;;7.97;3.87;;;2.80;99.90;;;;;;4158932;28;20270;-50
2024/03/18 04:57:52;;;;;;;9.10;4.70;;;2.80;99.90;;;;;;4160278;28;20698;-51
2024/03/18 04:59:54;;;;;;;8.83;4.53;;;2.80;99.90;;;;;;4142030;28;20321;-53
2024/03/18 05:01:55;;;;;;;6.60;4.10;;;2.90;99.90;;;;;;4161977;28;20271;-52
2024/03/18 05:03:56;;;;;;;8.53;4.23;;;2.90;99.90;;;;;;4159165;28;20825;-53
2024/03/18 05:05:57;;;;;;;6.87;4.63;;;2.90;99.90;;;;;;4160511;28;20294;-56
2024/03/18 05:07:59;;;;;;;9.83;4.83;;;2.90;99.90;;;;;;4159317;28;20320;-55
2024/03/18 05:10:01;;;;;;;8.70;4.50;;;2.90;99.90;;;;;;4160818;28;20275;-50
2024/03/18 05:12:02;;;;;;;10.50;4.77;;;3.00;99.90;;;;;;4159647;28;20336;-51
2024/03/18 05:14:04;;;;;;;11.03;5.83;;;3.00;99.90;;;;;;4159311;28;20329;-52
2024/03/18 05:16:05;;;;;;;10.27;5.03;;;3.00;99.90;;;;;;4158870;28;20821;-49
2024/03/18 05:18:07;;;;;;;8.07;5.30;;;2.90;99.90;;;;;;4158060;28;20279;-52
2024/03/18 05:20:11;;;;;;;9.07;4.97;;;2.90;99.90;;;;;;4159551;28;20266;-54
2024/03/18 05:22:13;;;;;;;9.20;5.47;;;2.90;99.90;;;;;;4159040;28;20400;-52
2024/03/18 05:24:15;;;;;;;9.07;5.43;;;2.90;99.90;;;;;;4159476;28;20259;-55
2024/03/18 05:26:16;;;;;;;8.27;4.87;;;2.90;99.90;;;;;;4161967;28;20309;-54
2024/03/18 05:28:17;;;;;;;11.50;5.20;;;2.90;99.90;;;;;;4164064;28;20278;-52
2024/03/18 05:30:18;;;;;;;12.10;5.53;;;3.00;99.90;;;;;;4162637;28;20284;-55
2024/03/18 05:32:20;;;;;;;9.37;4.63;;;3.00;99.90;;;;;;4163288;28;20267;-54
2024/03/18 05:34:21;;;;;;;8.23;5.20;;;3.10;99.90;;;;;;4162235;28;20267;-54
2024/03/18 05:36:22;;;;;;;10.73;4.70;;;3.10;99.90;;;;;;4149632;28;20345;-59
2024/03/18 05:38:23;;;;;;;6.43;4.20;;;3.20;99.90;;;;;;4161882;28;20360;-56
2024/03/18 05:40:25;;;;;;;7.73;4.47;;;3.20;99.90;;;;;;4162421;28;20328;-54
2024/03/18 05:42:26;;;;;;;9.23;5.40;;;3.30;99.90;;;;;;4162497;28;20685;-55
2024/03/18 05:44:27;;;;;;;12.00;5.30;;;3.40;99.90;;;;;;4163615;28;20266;-58
2024/03/18 05:46:29;;;;;;;8.03;4.63;;;3.40;99.90;;;;;;4162960;28;20771;-54
2024/03/18 05:48:30;;;;;;;9.17;4.40;;;3.40;99.90;;;;;;4162358;28;20283;-51
2024/03/18 05:50:32;;;;;;;9.57;5.17;;;3.40;99.90;;;;;;4161155;28;20321;-51
2024/03/18 05:52:34;;;;;;;11.50;5.13;;;3.50;99.90;;;;;;4162754;28;20374;-48
2024/03/18 05:54:35;;;;;;;8.53;4.90;;;3.50;99.90;;;;;;4162929;28;20324;-54
2024/03/18 05:56:36;;;;;;;7.93;4.43;;;3.60;99.90;;;;;;4162075;28;20277;-56
2024/03/18 05:58:40;;;;;;;7.17;4.90;;;3.60;99.90;;;;;;4163502;28;20320;-55
2024/03/18 06:00:42;;;;;;;9.17;5.10;;;3.60;99.90;;;;;;4162436;28;20263;-56
2024/03/18 06:02:43;;;;;;;10.77;5.57;;;3.70;99.90;;;;;;4163847;28;20340;-58
2024/03/18 06:04:44;;;;;;;10.40;5.80;;;3.70;99.90;;;;;;4162085;28;20773;-57
2024/03/18 06:06:46;;;;;;;12.70;4.67;;;3.80;99.90;;;;;;4163749;28;20286;-54
2024/03/18 06:08:48;;;;;;;6.93;4.77;;;3.80;99.90;;;;;;4163003;28;20329;-56
2024/03/18 06:10:49;;;;;;;8.23;5.23;;;3.90;99.90;;;;;;4162481;28;20666;-54
2024/03/18 06:12:50;;;;;;;10.83;4.90;;;4.00;99.90;;;;;;4161429;28;21038;-55
2024/03/18 06:14:51;;;;;;;9.57;4.27;;;4.10;99.90;;;;;;4162215;28;20263;-48
2024/03/18 06:16:52;;;;;;;6.03;4.47;;;4.30;99.90;;;;;;4162574;28;20278;-56
2024/03/18 06:18:54;;;;;;;6.43;4.43;;;4.50;99.90;;;;;;4162927;28;20665;-54
2024/03/18 06:20:56;;;;;;;8.47;4.47;;;4.60;99.90;;;;;;4161940;28;20266;-54
2024/03/18 06:22:58;;;;;;;8.47;5.03;;;4.60;99.90;;;;;;4158114;28;20393;-53
2024/03/18 06:27:19;;;;;;;10.17;5.13;;;4.60;99.90;;;;;;4162426;28;20321;-51
2024/03/18 06:29:20;;;;;;;6.87;4.50;;;4.70;99.90;;;;;;4163614;28;20324;-55
2024/03/18 06:31:23;;;;;;;9.40;4.40;;;4.80;99.90;;;;;;4161609;28;20337;-56
2024/03/18 06:33:25;;;;;;;7.93;4.30;;;4.90;99.90;;;;;;4162975;28;20828;-54
2024/03/18 06:35:26;;;;;;;10.37;5.50;;;5.00;99.90;;;;;;4160815;28;20333;-50
2024/03/18 06:37:28;;;;;;;12.87;6.50;;;5.00;99.90;;;;;;4162126;28;20038;-56
2024/03/18 06:39:29;;;;;;;12.37;7.43;;;5.00;99.90;;;;;;4160536;28;20103;-57
2024/03/18 06:41:34;;;;;;;17.97;8.23;;;5.10;99.90;;;;;;4162873;28;20045;-53
2024/03/18 06:43:36;;;;;;;15.13;7.67;;;5.20;99.90;;;;;;4143830;28;20041;-54
2024/03/18 06:45:37;;;;;;;14.23;8.03;;;5.40;99.90;;;;;;4163205;28;20029;-55
2024/03/18 06:47:38;;;;;;;10.47;5.93;;;5.50;99.90;;;;;;4161227;28;20099;-53
2024/03/18 06:49:40;;;;;;;10.13;6.43;;;5.60;99.90;;;;;;4162215;28;20045;-57
2024/03/18 06:51:41;;;;;;;12.57;7.07;;;5.70;99.90;;;;;;4161402;28;20049;-55
2024/03/18 06:53:42;;;;;;;14.77;6.93;;;5.90;99.90;;;;;;4161762;28;20481;-56
2024/03/18 06:55:44;;;;;;;13.83;6.97;;;5.90;99.90;;;;;;4161738;28;20504;-53
2024/03/18 06:57:45;;;;;;;13.60;7.10;;;6.00;99.90;;;;;;4161560;28;20142;-54
2024/03/18 06:59:47;;;;;;;9.30;5.50;;;6.10;99.90;;;;;;4163220;28;20438;-53
2024/03/18 07:01:48;;;;;;;10.00;4.73;;;6.30;99.90;;;;;;4160947;28;20099;-56
2024/03/18 07:03:50;;;;;;;8.43;4.57;;;6.40;99.90;;;;;;4162880;28;20030;-55
2024/03/18 07:05:51;;;;;;;15.30;8.77;;;6.70;99.90;;;;;;4161614;28;20092;-57
2024/03/18 07:07:52;;;;;;;10.80;5.60;;;7.00;99.90;;;;;;4161945;28;20049;-56
2024/03/18 07:09:54;;;;;;;9.90;4.60;;;7.50;99.90;;;;;;4161047;28;20049;-56
2024/03/18 07:11:55;;;;;;;6.53;3.07;;;8.00;99.90;;;;;;4162072;28;20049;-57
2024/03/18 07:13:56;;;;;;;4.27;2.97;;;8.40;99.90;;;;;;4160897;28;20445;-53
2024/03/18 07:15:58;;;;;;;11.97;2.90;;;8.60;99.90;;;;;;4163019;28;20075;-56
2024/03/18 07:17:59;;;;;;;6.23;3.10;;;8.70;99.90;;;;;;4160581;28;20096;-56
2024/03/18 07:20:06;;;;;;;6.07;3.50;;;8.80;99.90;;;;;;4161629;28;20042;-59
2024/03/18 07:22:09;;;;;;;9.33;3.23;;;8.70;99.90;;;;;;4160651;28;20049;-56
2024/03/18 07:24:10;;;;;;;6.87;3.47;;;8.70;99.90;;;;;;4161653;28;21026;-57
2024/03/18 07:26:12;;;;;;;6.80;3.33;;;8.70;99.90;;;;;;4160772;28;20095;-57
2024/03/18 07:28:13;;;;;;;6.03;3.70;;;8.80;99.90;;;;;;4161939;28;20129;-56
2024/03/18 07:30:17;;;;;;;7.87;3.50;;;8.80;99.90;;;;;;4161736;28;20034;-57
2024/03/18 07:32:18;;;;;;;6.27;3.17;;;8.90;99.90;;;;;;4160727;28;20038;-58
2024/03/18 07:34:20;;;;;;;6.60;3.00;;;9.10;99.90;;;;;;4162262;28;20083;-56
2024/03/18 07:36:22;;;;;;;7.33;3.37;;;9.00;99.90;;;;;;4160540;28;20049;-57
2024/03/18 07:38:24;;;;;;;9.23;3.37;;;9.00;99.90;;;;;;4161527;28;20060;-56
2024/03/18 07:40:25;;;;;;;5.27;3.10;;;9.10;99.90;;;;;;4161373;28;20033;-56
2024/03/18 07:42:26;;;;;;;6.57;4.33;;;9.30;99.90;;;;;;4161829;28;20088;-58
2024/03/18 07:44:28;;;;;;;5.17;2.60;;;9.60;99.90;;;;;;4161106;28;20029;-56
2024/03/18 07:46:29;;;;;;;4.13;2.77;;;9.80;99.90;;;;;;4162171;28;20045;-55
2024/03/18 07:48:30;;;;;;;4.37;2.30;;;9.80;99.90;;;;;;4160451;28;20033;-58
2024/03/18 07:50:35;;;;;;;3.87;2.07;;;9.90;99.90;;;;;;4161502;28;20822;-55
2024/03/18 07:52:36;;;;;;;5.03;2.43;;;10.00;99.90;;;;;;4160100;28;20433;-55
2024/03/18 07:54:37;;;;;;;4.20;2.40;;;10.10;99.90;;;;;;4162153;28;20080;-57
2024/03/18 07:56:39;;;;;;;6.70;2.30;;;10.40;99.90;;;;;;4159714;28;20033;-55
2024/03/18 07:58:40;;;;;;;3.10;1.70;;;10.70;99.90;;;;;;4162037;28;20021;-57
2024/03/18 08:00:41;;;;;;;5.77;2.27;;;11.20;99.90;;;;;;4161639;28;20018;-57
2024/03/18 08:02:43;;;;;;;5.87;2.20;;;11.40;99.90;;;;;;4143319;28;20054;-57
2024/03/18 08:04:45;;;;;;;4.13;2.10;;;11.50;99.90;;;;;;4160584;28;20034;-58
2024/03/18 08:06:47;;;;;;;4.30;2.17;;;11.60;99.90;;;;;;4160560;28;20041;-55
2024/03/18 08:08:48;;;;;;;7.70;2.63;;;11.30;99.90;;;;;;4161322;28;20099;-55
2024/03/18 08:10:50;;;;;;;5.20;2.07;;;11.10;99.90;;;;;;4160734;28;20021;-57
2024/03/18 08:12:51;;;;;;;5.10;2.47;;;10.20;99.10;;;;;;4160924;28;20088;-57
2024/03/18 08:14:52;;;;;;;8.40;2.20;;;9.80;99.90;;;;;;4160078;28;20551;-56
2024/03/18 08:16:55;;;;;;;3.67;1.83;;;9.90;99.90;;;;;;4161048;28;20044;-56
2024/03/18 08:18:56;;;;;;;2.73;1.60;;;10.00;99.90;;;;;;4159895;28;20041;-55
2024/03/18 08:20:57;;;;;;;4.03;1.87;;;10.10;99.90;;;;;;4161019;28;20486;-57
2024/03/18 08:22:59;;;;;;;5.43;1.93;;;10.40;99.60;;;;;;4159976;28;20038;-58
2024/03/18 08:25:00;;;;;;;6.20;1.70;;;10.80;99.60;;;;;;4160812;28;20174;-56
2024/03/18 08:27:01;;;;;;;2.60;1.60;;;11.00;99.00;;;;;;4160197;28;20057;-54
2024/03/18 08:29:03;;;;;;;3.63;1.93;;;11.30;99.00;;;;;;4160666;28;20045;-57
2024/03/18 08:31:04;;;;;;;3.87;1.20;;;11.20;97.90;;;;;;4160209;28;20569;-57
2024/03/18 08:33:05;;;;;;;4.10;1.33;;;10.80;97.50;;;;;;4160299;28;20107;-54
2024/03/18 08:35:07;;;;;;;3.03;0.90;;;10.40;96.80;;;;;;4160290;28;20029;-57
2024/03/18 08:37:08;;;;;;;3.37;1.37;;;10.30;97.80;;;;;;4160549;28;20021;-55
2024/03/18 08:39:09;;;;;;;3.40;1.30;;;10.00;96.10;;;;;;4160799;28;20460;-58
2024/03/18 08:41:11;;;;;;;5.83;1.87;;;9.90;97.00;;;;;;4159638;28;20037;-56
2024/03/18 08:43:12;;;;;;;9.23;1.77;;;9.80;95.80;;;;;;4160584;28;20053;-54
2024/03/18 08:45:14;;;;;;;4.97;1.20;;;9.70;96.00;;;;;;4159616;28;20033;-54
2024/03/18 08:47:15;;;;;;;4.13;1.20;;;9.60;95.90;;;;;;4160413;28;20104;-56
2024/03/18 08:49:19;;;;;;;5.63;1.53;;;9.60;96.30;;;;;;4160324;28;20401;-54
2024/03/18 08:51:20;;;;;;;4.83;1.43;;;9.80;95.80;;;;;;4160513;28;20115;-56
2024/03/18 08:53:22;;;;;;;3.30;1.33;;;9.80;95.30;;;;;;4160288;28;20033;-57
2024/03/18 08:55:23;;;;;;;3.10;1.67;;;9.90;96.10;;;;;;4160479;28;20351;-57
2024/03/18 08:57:24;;;;;;;4.80;2.60;;;9.70;96.00;;;;;;4159506;28;20103;-58
2024/03/18 08:59:27;;;;;;;6.70;1.87;;;9.60;96.80;;;;;;4161421;28;20044;-55
2024/03/18 09:01:28;;;;;;;3.80;1.70;;;9.50;97.50;;;;;;4160405;28;20037;-57
2024/03/18 09:03:30;;;;;;;10.37;2.20;;;9.30;97.80;;;;;;4158813;28;20095;-55
2024/03/18 09:05:31;;;;;;;7.03;1.63;;;9.00;97.50;;;;;;4160012;28;20458;-56
2024/03/18 09:07:33;;;;;;;4.47;1.63;;;8.50;97.50;;;;;;4160019;28;20042;-52
2024/03/18 09:09:34;;;;;;;4.60;1.70;;;8.10;97.60;;;;;;4160894;28;20129;-52
2024/03/18 09:11:36;;;;;;;3.53;1.80;;;7.80;97.50;;;;;;4159321;28;20042;-56
2024/03/18 09:13:37;;;;;;;7.93;2.67;;;7.70;98.70;;;;;;4160398;28;20037;-52
2024/03/18 09:15:38;;;;;;;2.57;1.40;;;7.60;98.40;;;;;;4159559;28;20406;-56
2024/03/18 09:17:40;;;;;;;5.20;1.73;;;7.60;98.50;;;;;;4161297;28;20548;-52
2024/03/18 09:19:42;;;;;;;3.57;1.63;;;7.60;98.30;;;;;;4160158;28;20037;-54
2024/03/18 09:21:43;;;;;;;2.80;1.47;;;7.70;98.30;;;;;;4160297;28;20097;-55
2024/03/18 09:23:45;;;;;;;5.57;2.07;;;7.60;97.90;;;;;;4160243;28;20075;-55
2024/03/18 09:25:46;;;;;;;8.70;2.00;;;7.60;98.50;;;;;;4160262;28;20402;-53
2024/03/18 09:27:48;;;;;;;6.17;1.70;;;7.70;98.80;;;;;;4159004;28;20045;-58
2024/03/18 09:29:49;;;;;;;5.53;1.30;;;7.80;98.10;;;;;;4161244;28;20103;-54
2024/03/18 09:31:50;;;;;;;5.70;2.63;;;7.90;98.20;;;;;;4159773;28;20014;-55
2024/03/18 09:33:52;;;;;;;3.03;1.50;;;8.00;98.00;;;;;;4160436;28;20137;-56
2024/03/18 09:35:53;;;;;;;3.87;1.47;;;8.10;97.70;;;;;;4159073;28;20092;-54
2024/03/18 09:37:54;;;;;;;7.47;1.70;;;7.90;97.30;;;;;;4159637;28;20366;-56
2024/03/18 09:39:56;;;;;;;10.07;2.10;;;8.10;98.00;;;;;;4159393;28;20496;-53
2024/03/18 09:41:57;;;;;;;2.73;1.30;;;8.10;97.70;;;;;;4158877;28;20042;-57
2024/03/18 09:44:00;;;;;;;3.93;1.30;;;8.30;98.20;;;;;;4160648;28;20095;-56
2024/03/18 09:46:05;;;;;;;6.40;1.70;;;8.40;98.20;;;;;;4158357;28;20099;-55
2024/03/18 09:48:14;;;;;;;7.57;1.33;;;8.50;97.30;;;;;;4160068;28;20722;-54
2024/03/18 09:50:16;;;;;;;3.00;1.20;;;8.20;96.00;;;;;;4158255;28;20045;-56
2024/03/18 09:52:18;;;;;;;5.13;1.63;;;7.90;96.80;;;;;;4160520;28;20041;-58
2024/03/18 09:54:20;;;;;;;3.07;1.20;;;7.80;97.40;;;;;;4159364;28;20087;-57
2024/03/18 09:56:22;;;;;;;2.87;1.20;;;7.70;97.10;;;;;;4160273;28;20033;-55
2024/03/18 09:58:23;;;;;;;1.30;1.20;;;7.60;97.30;;;;;;4159377;28;20099;-58
2024/03/18 10:00:24;;;;;;;7.77;1.77;;;7.50;97.10;;;;;;4159926;28;20087;-52
2024/03/18 10:02:26;;;;;;;2.73;1.60;;;7.70;97.90;;;;;;4158894;28;20077;-55
2024/03/18 10:04:28;;;;;;;3.47;1.60;;;7.80;97.90;;;;;;4159807;28;20045;-57
2024/03/18 10:06:33;;;;;;;1.57;1.03;;;7.90;97.70;;;;;;4158984;28;20049;-59
2024/03/18 10:08:37;;;;;;;5.97;1.47;;;8.10;96.20;;;;;;4158738;28;20049;-55
2024/03/18 10:10:38;;;;;;;6.37;1.60;;;8.20;96.40;;;;;;4159513;28;20103;-57
2024/03/18 10:12:40;;;;;;;3.10;1.20;;;8.40;96.50;;;;;;4163005;28;20068;-59
2024/03/18 10:14:42;;;;;;;4.40;1.17;;;8.60;96.90;;;;;;4163212;28;20022;-54
2024/03/18 10:16:43;;;;;;;4.93;1.57;;;8.80;96.50;;;;;;4162407;28;20477;-54
2024/03/18 10:18:47;;;;;;;2.13;1.13;;;9.00;95.80;;;;;;4163358;28;20060;-55
2024/03/18 10:20:50;;;;;;;5.40;1.83;;;8.80;94.70;;;;;;4161481;28;20076;-52
2024/03/18 10:22:52;;;;;;;5.67;1.77;;;8.70;94.90;;;;;;4162469;28;20033;-56
2024/03/18 10:24:55;;;;;;;5.97;1.97;;;8.60;96.10;;;;;;4161282;28;20091;-55
2024/03/18 10:26:57;;;;;;;4.60;1.37;;;8.70;96.30;;;;;;4162358;28;20433;-55
2024/03/18 10:28:59;;;;;;;3.83;1.33;;;8.80;96.60;;;;;;4161443;28;20049;-54
2024/03/18 10:31:00;;;;;;;7.13;1.20;;;8.90;96.80;;;;;;4163096;28;20080;-56
2024/03/18 10:33:08;;;;;;;6.03;1.20;;;8.80;96.50;;;;;;4161437;28;20037;-53
2024/03/18 10:35:25;;;;;;;6.07;1.80;;;8.50;95.60;;;;;;4162505;28;20041;-50
2024/03/18 10:37:27;;;;;;;2.40;1.17;;;8.40;96.60;;;;;;4161350;28;20083;-57
2024/03/18 10:39:46;;;;;;;8.37;1.93;;;8.40;96.70;;;;;;4163261;28;20508;-55
2024/03/18 10:41:50;;;;;;;10.63;1.97;;;8.50;96.80;;;;;;4160984;28;20053;-55
2024/03/18 10:43:54;;;;;;;7.60;1.67;;;8.30;96.60;;;;;;4162120;28;20041;-55